Time;durP1;ratioP1;P1;durP2;ratioP2;P2;SDS_P1;SDS_P2;PMS_P1;PMS_P2;Temp;Humidity;BMP_temperature;BMP_pressure;BME280_temperature;BME280_humidity;BME280_pressure;Samples;Min_cycle;Max_cycle;Signal;HPM_P1;HPM_P2
2022/09/10 00:02:06;;;;;;;2.00;1.33;;;;;13.30;95856.00;;;;5114408;28;20545;-65
2022/09/10 00:04:33;;;;;;;0.60;0.60;;;;;13.30;95851.00;;;;5114384;28;20240;-65
2022/09/10 00:06:59;;;;;;;0.50;0.50;;;;;13.30;95860.00;;;;5114240;28;20221;-63
2022/09/10 00:09:26;;;;;;;0.50;0.50;;;;;13.20;95858.00;;;;5096721;28;20202;-66
2022/09/10 00:11:54;;;;;;;0.57;0.57;;;;;13.30;95856.00;;;;5114280;28;20221;-68
2022/09/10 00:14:23;;;;;;;0.60;0.60;;;;;13.30;95851.00;;;;5114423;28;20209;-67
2022/09/10 00:16:50;;;;;;;0.50;0.50;;;;;13.30;95848.00;;;;5114280;28;20198;-66
2022/09/10 00:19:18;;;;;;;0.60;0.60;;;;;13.30;95851.00;;;;5114208;28;20224;-68
2022/09/10 00:21:45;;;;;;;0.60;0.60;;;;;13.30;95854.00;;;;5114410;28;20618;-68
2022/09/10 00:24:12;;;;;;;0.70;0.70;;;;;13.40;95855.00;;;;5114063;28;20217;-66
2022/09/10 00:26:40;;;;;;;0.50;0.50;;;;;13.40;95863.00;;;;5114179;28;20205;-66
2022/09/10 00:29:10;;;;;;;0.63;0.63;;;;;13.40;95858.00;;;;5096183;28;20203;-65
2022/09/10 00:31:37;;;;;;;3.87;0.60;;;;;13.30;95854.00;;;;5114049;28;20201;-65
2022/09/10 00:34:05;;;;;;;0.60;0.60;;;;;13.20;95862.00;;;;5113988;28;20621;-65
2022/09/10 00:36:34;;;;;;;0.50;0.50;;;;;13.20;95863.00;;;;5113955;28;20198;-66
2022/09/10 00:39:06;;;;;;;1.20;1.10;;;;;13.20;95869.00;;;;5113973;28;20579;-63
2022/09/10 00:41:38;;;;;;;0.50;0.50;;;;;13.30;95855.00;;;;5113879;28;20225;-66
2022/09/10 00:44:26;;;;;;;0.50;0.50;;;;;13.20;95862.00;;;;5113834;28;20269;-65
2022/09/10 00:46:55;;;;;;;0.60;0.60;;;;;13.20;95864.00;;;;5113791;28;20244;-65
2022/09/10 00:49:29;;;;;;;0.50;0.50;;;;;13.20;95866.00;;;;5113466;28;20202;-68
2022/09/10 00:51:59;;;;;;;0.60;0.60;;;;;13.20;95861.00;;;;5095820;28;20312;-66
2022/09/10 00:54:28;;;;;;;0.93;0.93;;;;;13.10;95875.00;;;;5113726;28;20695;-65
2022/09/10 00:56:58;;;;;;;0.60;0.60;;;;;13.10;95872.00;;;;5113657;28;20272;-64
2022/09/10 00:59:27;;;;;;;0.50;0.50;;;;;12.90;95871.00;;;;5113729;28;20209;-66
2022/09/10 01:01:55;;;;;;;0.60;0.60;;;;;12.90;95871.00;;;;5113737;28;20307;-66
2022/09/10 01:04:22;;;;;;;0.50;0.50;;;;;12.90;95873.00;;;;5113445;28;20733;-66
2022/09/10 01:06:50;;;;;;;0.50;0.50;;;;;12.80;95879.00;;;;5113665;28;20653;-66
2022/09/10 01:09:18;;;;;;;0.53;0.53;;;;;12.80;95874.00;;;;5113455;28;20274;-64
2022/09/10 01:11:58;;;;;;;0.40;0.40;;;;;12.80;95870.00;;;;5113503;28;20204;-66
2022/09/10 01:14:46;;;;;;;0.53;0.53;;;;;12.90;95868.00;;;;5113232;28;20282;-64
2022/09/10 01:17:25;;;;;;;0.50;0.50;;;;;12.90;95871.00;;;;5113442;28;20406;-65
2022/09/10 01:20:17;;;;;;;0.50;0.50;;;;;12.90;95874.00;;;;5113510;28;20229;-66
2022/09/10 01:23:10;;;;;;;0.50;0.50;;;;;12.90;95885.00;;;;5113365;28;20225;-66
2022/09/10 01:25:48;;;;;;;0.60;0.60;;;;;12.80;95876.00;;;;5113238;28;20326;-66
2022/09/10 01:28:22;;;;;;;0.63;0.63;;;;;12.80;95866.00;;;;5113575;28;20485;-65
2022/09/10 01:30:54;;;;;;;0.60;0.60;;;;;12.80;95852.00;;;;5113262;28;20596;-66
2022/09/10 01:33:25;;;;;;;0.70;0.70;;;;;12.80;95853.00;;;;5113233;28;20205;-66
2022/09/10 01:35:56;;;;;;;0.60;0.60;;;;;13.00;95838.00;;;;5113232;28;20229;-66
2022/09/10 01:38:30;;;;;;;0.50;0.50;;;;;13.00;95845.00;;;;5113164;28;20209;-66
2022/09/10 01:40:57;;;;;;;0.60;0.60;;;;;13.10;95842.00;;;;5113167;28;20210;-65
2022/09/10 01:43:25;;;;;;;0.50;0.50;;;;;13.00;95866.00;;;;5112949;28;20225;-66
2022/09/10 01:46:07;;;;;;;0.57;0.57;;;;;13.00;95853.00;;;;5112993;28;20225;-65
2022/09/10 01:48:59;;;;;;;0.57;0.57;;;;;13.10;95849.00;;;;5113359;28;20225;-66
2022/09/10 01:51:41;;;;;;;0.60;0.60;;;;;13.10;95843.00;;;;5113177;28;20267;-66
2022/09/10 01:54:24;;;;;;;0.63;0.63;;;;;13.10;95834.00;;;;5095163;28;20620;-66
2022/09/10 01:57:01;;;;;;;0.60;0.60;;;;;13.20;95848.00;;;;5112970;28;20209;-64
2022/09/10 01:59:34;;;;;;;0.50;0.50;;;;;13.20;95844.00;;;;5112844;28;20221;-65
2022/09/10 02:02:05;;;;;;;0.50;0.50;;;;;13.20;95839.00;;;;5097336;28;20194;-66
2022/09/10 02:04:35;;;;;;;0.60;0.60;;;;;13.10;95842.00;;;;5098224;28;20238;-66
2022/09/10 02:07:04;;;;;;;0.70;0.70;;;;;13.30;95842.00;;;;5116345;28;20269;-66
2022/09/10 02:09:34;;;;;;;1.03;0.83;;;;;13.20;95833.00;;;;5116421;28;20205;-65
2022/09/10 02:12:01;;;;;;;3.70;1.50;;;;;13.10;95833.00;;;;5116238;28;20226;-65
2022/09/10 02:14:28;;;;;;;0.60;0.60;;;;;13.10;95830.00;;;;5116183;28;20201;-65
2022/09/10 02:16:57;;;;;;;0.50;0.50;;;;;13.00;95824.00;;;;5116214;28;20198;-65
2022/09/10 02:19:25;;;;;;;0.50;0.50;;;;;13.10;95825.00;;;;5116101;28;20201;-66
2022/09/10 02:21:52;;;;;;;0.87;0.87;;;;;13.10;95820.00;;;;5116051;28;20214;-66
2022/09/10 02:24:21;;;;;;;0.50;0.50;;;;;13.20;95831.00;;;;5116082;28;20198;-66
2022/09/10 02:26:48;;;;;;;0.50;0.50;;;;;13.10;95823.00;;;;5115871;28;20210;-66
2022/09/10 02:29:16;;;;;;;0.50;0.50;;;;;13.10;95832.00;;;;5115983;28;20653;-66
2022/09/10 02:31:44;;;;;;;0.60;0.60;;;;;13.20;95825.00;;;;5115991;28;20484;-63
2022/09/10 02:34:11;;;;;;;0.60;0.60;;;;;13.20;95831.00;;;;5118694;28;20202;-65
2022/09/10 02:36:39;;;;;;;0.50;0.50;;;;;13.20;95825.00;;;;5116145;28;20213;-65
2022/09/10 02:39:06;;;;;;;0.60;0.60;;;;;13.20;95836.00;;;;5115851;28;20268;-66
2022/09/10 02:41:34;;;;;;;1.17;1.17;;;;;13.10;95828.00;;;;5115891;28;20205;-66
2022/09/10 02:44:01;;;;;;;0.50;0.50;;;;;13.20;95835.00;;;;5097890;28;20366;-68
2022/09/10 02:46:29;;;;;;;0.60;0.60;;;;;13.10;95829.00;;;;5115669;28;20316;-66
2022/09/10 02:48:56;;;;;;;0.60;0.60;;;;;13.20;95821.00;;;;5115486;28;20193;-66
2022/09/10 02:51:23;;;;;;;0.60;0.60;;;;;13.30;95826.00;;;;5115793;28;20712;-66
2022/09/10 02:53:50;;;;;;;0.60;0.60;;;;;13.10;95828.00;;;;5097830;28;20200;-65
2022/09/10 02:56:18;;;;;;;0.60;0.60;;;;;13.30;95816.00;;;;5115695;28;20591;-66
2022/09/10 02:58:45;;;;;;;0.50;0.50;;;;;13.30;95815.00;;;;5115498;28;20330;-65
2022/09/10 03:01:13;;;;;;;0.50;0.50;;;;;13.30;95813.00;;;;5115486;28;20252;-65
2022/09/10 03:03:41;;;;;;;0.53;0.53;;;;;13.10;95816.00;;;;5115530;28;20190;-66
2022/09/10 03:06:09;;;;;;;0.60;0.60;;;;;13.20;95818.00;;;;5115333;28;20294;-66
2022/09/10 03:08:36;;;;;;;0.70;0.70;;;;;13.10;95812.00;;;;5115316;28;20206;-65
2022/09/10 03:11:05;;;;;;;0.50;0.50;;;;;13.00;95815.00;;;;5115584;28;20566;-65
2022/09/10 03:13:33;;;;;;;0.70;0.70;;;;;12.90;95833.00;;;;5115244;28;20523;-66
2022/09/10 03:16:02;;;;;;;0.50;0.50;;;;;12.80;95821.00;;;;5115332;28;20201;-68
2022/09/10 03:18:30;;;;;;;0.57;0.57;;;;;12.80;95816.00;;;;5115261;28;20308;-66
2022/09/10 03:21:09;;;;;;;0.60;0.60;;;;;12.80;95816.00;;;;5115267;28;20262;-68
2022/09/10 03:23:39;;;;;;;0.80;0.80;;;;;12.80;95819.00;;;;5097061;28;20228;-68
2022/09/10 03:26:06;;;;;;;0.60;0.60;;;;;12.90;95813.00;;;;5115043;28;20251;-66
2022/09/10 03:28:33;;;;;;;0.60;0.60;;;;;13.00;95813.00;;;;5115023;28;20286;-67
2022/09/10 03:31:00;;;;;;;0.83;0.80;;;;;13.00;95820.00;;;;5115048;28;20219;-66
2022/09/10 03:33:28;;;;;;;0.50;0.50;;;;;13.10;95817.00;;;;5114894;28;20210;-66
2022/09/10 03:35:55;;;;;;;0.50;0.50;;;;;13.10;95822.00;;;;5115295;28;20217;-65
2022/09/10 03:38:24;;;;;;;0.60;0.60;;;;;13.00;95817.00;;;;5115078;28;20225;-64
2022/09/10 03:40:51;;;;;;;0.60;0.60;;;;;13.10;95816.00;;;;5114882;28;20334;-66
2022/09/10 03:43:19;;;;;;;0.70;0.70;;;;;13.10;95818.00;;;;5115069;28;20210;-67
2022/09/10 03:45:47;;;;;;;3.13;0.80;;;;;13.10;95824.00;;;;5114795;28;20324;-66
2022/09/10 03:48:15;;;;;;;1.20;1.20;;;;;12.90;95819.00;;;;5115039;28;20202;-66
2022/09/10 03:50:44;;;;;;;1.43;1.33;;;;;12.90;95815.00;;;;5114688;28;20198;-65
2022/09/10 03:53:11;;;;;;;0.50;0.50;;;;;12.90;95817.00;;;;5114789;28;20214;-67
2022/09/10 03:55:41;;;;;;;0.90;0.90;;;;;12.90;95814.00;;;;5114596;28;20202;-65
2022/09/10 03:58:08;;;;;;;0.50;0.50;;;;;12.80;95813.00;;;;5114606;28;20182;-66
2022/09/10 04:00:35;;;;;;;0.80;0.80;;;;;12.60;95816.00;;;;5114531;28;20201;-66
2022/09/10 04:03:04;;;;;;;3.13;1.43;;;;;12.60;95809.00;;;;5114462;28;20236;-68
2022/09/10 04:05:31;;;;;;;0.50;0.50;;;;;12.50;95800.00;;;;5114363;28;20300;-66
2022/09/10 04:07:59;;;;;;;0.50;0.50;;;;;12.50;95809.00;;;;5114279;28;20218;-66
2022/09/10 04:10:25;;;;;;;0.50;0.50;;;;;12.40;95809.00;;;;5114439;28;20271;-66
2022/09/10 04:12:53;;;;;;;0.50;0.50;;;;;12.40;95800.00;;;;5096253;28;20225;-66
2022/09/10 04:15:23;;;;;;;0.73;0.73;;;;;12.40;95804.00;;;;5114503;28;20201;-66
2022/09/10 04:17:50;;;;;;;0.50;0.50;;;;;12.50;95806.00;;;;5114366;28;20186;-65
2022/09/10 04:20:19;;;;;;;0.50;0.50;;;;;12.60;95812.00;;;;5114388;28;20300;-66
2022/09/10 04:22:46;;;;;;;0.50;0.50;;;;;12.60;95812.00;;;;5114228;28;20190;-65
2022/09/10 04:25:13;;;;;;;0.60;0.60;;;;;12.70;95814.00;;;;5113427;28;20225;-64
2022/09/10 04:27:40;;;;;;;0.50;0.50;;;;;12.70;95802.00;;;;5096210;28;20221;-65
2022/09/10 04:30:09;;;;;;;0.50;0.50;;;;;12.60;95807.00;;;;5113956;28;20645;-64
2022/09/10 04:32:36;;;;;;;0.53;0.53;;;;;12.50;95816.00;;;;5114293;28;20213;-66
2022/09/10 04:35:05;;;;;;;0.50;0.50;;;;;12.50;95819.00;;;;5113977;28;20202;-66
2022/09/10 04:37:34;;;;;;;0.40;0.40;;;;;12.50;95817.00;;;;5113956;28;20194;-66
2022/09/10 04:40:04;;;;;;;0.50;0.50;;;;;12.60;95827.00;;;;5113867;28;20194;-66
2022/09/10 04:42:31;;;;;;;0.70;0.70;;;;;12.70;95821.00;;;;5113871;28;20283;-66
2022/09/10 04:44:58;;;;;;;0.80;0.80;;;;;12.90;95829.00;;;;5113882;28;20214;-66
2022/09/10 04:47:26;;;;;;;0.60;0.60;;;;;12.90;95825.00;;;;5113797;28;20646;-66
2022/09/10 04:49:52;;;;;;;0.53;0.53;;;;;13.00;95834.00;;;;5113852;28;20212;-64
2022/09/10 04:52:21;;;;;;;0.60;0.60;;;;;13.00;95825.00;;;;5113734;28;20669;-66
2022/09/10 04:54:48;;;;;;;0.50;0.50;;;;;13.00;95837.00;;;;5113766;28;20213;-66
2022/09/10 04:57:15;;;;;;;0.60;0.60;;;;;13.20;95838.00;;;;5113758;28;20594;-66
2022/09/10 04:59:44;;;;;;;0.60;0.60;;;;;13.10;95834.00;;;;5113585;28;20190;-65
2022/09/10 05:02:11;;;;;;;0.97;0.97;;;;;13.20;95833.00;;;;5113612;28;20217;-66
2022/09/10 05:04:39;;;;;;;0.50;0.50;;;;;13.10;95840.00;;;;5113547;28;20214;-66
2022/09/10 05:07:06;;;;;;;0.60;0.60;;;;;13.10;95836.00;;;;5113557;28;20200;-64
2022/09/10 05:09:32;;;;;;;0.60;0.60;;;;;13.10;95839.00;;;;5113485;28;20214;-66
2022/09/10 05:12:00;;;;;;;0.60;0.60;;;;;13.10;95836.00;;;;5113657;28;20193;-67
2022/09/10 05:14:28;;;;;;;0.60;0.60;;;;;13.10;95841.00;;;;5113451;28;20201;-65
2022/09/10 05:16:57;;;;;;;0.90;0.90;;;;;13.10;95843.00;;;;5095483;28;20205;-63
2022/09/10 05:19:26;;;;;;;0.60;0.60;;;;;13.20;95837.00;;;;5113445;28;20676;-66
2022/09/10 05:21:53;;;;;;;0.57;0.57;;;;;13.10;95843.00;;;;5113446;28;20194;-66
2022/09/10 05:24:20;;;;;;;0.63;0.63;;;;;13.20;95838.00;;;;5113540;28;20730;-66
2022/09/10 05:26:47;;;;;;;0.53;0.53;;;;;13.10;95845.00;;;;5095256;28;20238;-66
2022/09/10 05:29:14;;;;;;;0.53;0.53;;;;;13.10;95835.00;;;;5113401;28;20205;-68
2022/09/10 05:31:41;;;;;;;0.50;0.50;;;;;13.20;95845.00;;;;5113207;28;20213;-66
2022/09/10 05:34:07;;;;;;;0.60;0.60;;;;;13.20;95845.00;;;;5113457;28;20194;-66
2022/09/10 05:36:34;;;;;;;0.60;0.60;;;;;13.20;95849.00;;;;5115025;28;20646;-66
2022/09/10 05:39:02;;;;;;;0.60;0.60;;;;;13.20;95848.00;;;;5116794;28;20201;-68
2022/09/10 05:41:29;;;;;;;0.57;0.57;;;;;13.40;95841.00;;;;5116876;28;20289;-68
2022/09/10 05:43:56;;;;;;;0.50;0.50;;;;;13.40;95846.00;;;;5116713;28;20236;-67
2022/09/10 05:46:23;;;;;;;0.60;0.60;;;;;13.50;95852.00;;;;5116768;28;20222;-66
2022/09/10 05:48:51;;;;;;;0.60;0.60;;;;;13.40;95857.00;;;;5116905;28;20294;-66
2022/09/10 05:51:21;;;;;;;0.47;0.47;;;;;13.40;95853.00;;;;5116702;28;20228;-66
2022/09/10 05:53:48;;;;;;;0.60;0.60;;;;;13.40;95856.00;;;;5116639;28;20331;-68
2022/09/10 05:56:16;;;;;;;0.60;0.60;;;;;13.30;95859.00;;;;5116685;28;20197;-66
2022/09/10 05:58:44;;;;;;;0.57;0.57;;;;;13.20;95855.00;;;;5116610;28;20251;-67
2022/09/10 06:01:11;;;;;;;0.60;0.60;;;;;13.20;95855.00;;;;5116502;28;20197;-67
2022/09/10 06:03:39;;;;;;;0.60;0.60;;;;;13.20;95856.00;;;;5098531;28;20507;-66
2022/09/10 06:06:06;;;;;;;0.60;0.60;;;;;13.40;95849.00;;;;5098282;28;20546;-68
2022/09/10 06:08:33;;;;;;;0.90;0.90;;;;;13.40;95855.00;;;;5116354;28;20251;-66
2022/09/10 06:11:03;;;;;;;0.50;0.50;;;;;13.30;95866.00;;;;5116250;28;20229;-66
2022/09/10 06:13:32;;;;;;;0.60;0.60;;;;;13.40;95866.00;;;;5116371;28;20210;-66
2022/09/10 06:15:59;;;;;;;0.50;0.50;;;;;13.30;95857.00;;;;5116088;28;20251;-67
2022/09/10 06:18:26;;;;;;;0.50;0.50;;;;;13.50;95862.00;;;;5116159;28;20186;-66
2022/09/10 06:21:01;;;;;;;0.73;0.73;;;;;13.20;95860.00;;;;5116129;28;20201;-66
2022/09/10 06:23:30;;;;;;;0.73;0.73;;;;;13.20;95867.00;;;;5116140;28;20202;-66
2022/09/10 06:26:05;;;;;;;1.60;1.27;;;;;13.30;95868.00;;;;5115986;28;20239;-66
2022/09/10 06:28:33;;;;;;;0.50;0.50;;;;;13.30;95872.00;;;;5115954;28;20217;-66
2022/09/10 06:31:02;;;;;;;0.67;0.67;;;;;13.50;95874.00;;;;5115931;28;20657;-64
2022/09/10 06:33:29;;;;;;;0.50;0.50;;;;;13.60;95861.00;;;;5115802;28;20665;-67
2022/09/10 06:36:00;;;;;;;0.53;0.53;;;;;13.60;95869.00;;;;5115808;28;20194;-66
2022/09/10 06:38:29;;;;;;;0.50;0.50;;;;;13.20;95872.00;;;;5115815;28;20191;-65
2022/09/10 06:40:59;;;;;;;0.43;0.43;;;;;13.10;95858.00;;;;5115796;28;20194;-67
2022/09/10 06:43:27;;;;;;;0.50;0.50;;;;;13.20;95870.00;;;;5097991;28;20261;-69
2022/09/10 06:45:55;;;;;;;0.50;0.50;;;;;13.40;95868.00;;;;5115610;28;20221;-67
2022/09/10 06:48:26;;;;;;;0.70;0.70;;;;;13.60;95878.00;;;;5115236;28;20285;-66
2022/09/10 06:50:53;;;;;;;0.50;0.50;;;;;13.50;95881.00;;;;5115505;28;20210;-65
2022/09/10 06:53:21;;;;;;;0.53;0.53;;;;;13.50;95879.00;;;;5115550;28;20294;-66
2022/09/10 06:55:49;;;;;;;0.53;0.53;;;;;13.80;95876.00;;;;5119266;28;20225;-67
2022/09/10 06:58:17;;;;;;;0.57;0.57;;;;;13.70;95888.00;;;;5123914;28;20198;-67
2022/09/10 07:00:45;;;;;;;0.60;0.60;;;;;13.50;95880.00;;;;5121474;28;20271;-67
2022/09/10 07:03:13;;;;;;;0.60;0.60;;;;;13.60;95890.00;;;;5097549;28;20221;-67
2022/09/10 07:05:39;;;;;;;1.07;1.07;;;;;13.70;95892.00;;;;5115242;28;20226;-67
2022/09/10 07:08:06;;;;;;;0.50;0.50;;;;;14.00;95896.00;;;;5115235;28;20217;-66
2022/09/10 07:10:34;;;;;;;0.50;0.50;;;;;13.80;95893.00;;;;5115399;28;20318;-66
2022/09/10 07:13:00;;;;;;;0.50;0.50;;;;;14.00;95896.00;;;;5115126;28;20229;-65
2022/09/10 07:15:27;;;;;;;0.50;0.50;;;;;13.90;95896.00;;;;5115114;28;20607;-64
2022/09/10 07:17:54;;;;;;;0.50;0.50;;;;;13.80;95895.00;;;;5115119;28;20210;-65
2022/09/10 07:20:24;;;;;;;0.53;0.53;;;;;13.80;95898.00;;;;5115133;28;20202;-65
2022/09/10 07:22:54;;;;;;;0.60;0.60;;;;;14.00;95907.00;;;;5115046;28;20738;-68
2022/09/10 07:25:21;;;;;;;0.83;0.83;;;;;14.30;95899.00;;;;5097005;28;20222;-66
2022/09/10 07:27:50;;;;;;;0.77;0.77;;;;;14.50;95899.00;;;;5115029;28;20277;-66
2022/09/10 07:30:18;;;;;;;0.50;0.50;;;;;14.60;95897.00;;;;5114708;28;20229;-66
2022/09/10 07:32:45;;;;;;;0.53;0.53;;;;;14.90;95901.00;;;;5114987;28;20210;-66
2022/09/10 07:35:12;;;;;;;0.50;0.50;;;;;14.90;95911.00;;;;5114839;28;20727;-66
2022/09/10 07:37:40;;;;;;;0.57;0.57;;;;;15.10;95909.00;;;;5114911;28;20185;-66
2022/09/10 07:40:08;;;;;;;0.50;0.50;;;;;15.10;95913.00;;;;5114779;28;20222;-66
2022/09/10 07:42:36;;;;;;;0.50;0.50;;;;;15.30;95920.00;;;;5114880;28;20194;-65
2022/09/10 07:45:04;;;;;;;1.17;1.17;;;;;15.40;95921.00;;;;5114715;28;20298;-66
2022/09/10 07:47:32;;;;;;;0.57;0.57;;;;;15.60;95929.00;;;;5096850;28;20724;-66
2022/09/10 07:49:59;;;;;;;0.70;0.70;;;;;15.50;95924.00;;;;5114768;28;20668;-66
2022/09/10 07:52:25;;;;;;;0.60;0.60;;;;;15.40;95926.00;;;;5114619;28;20225;-66
2022/09/10 07:54:53;;;;;;;0.57;0.57;;;;;15.50;95932.00;;;;5114619;28;20242;-66
2022/09/10 07:57:22;;;;;;;1.23;1.20;;;;;15.90;95922.00;;;;5114478;28;20229;-65
2022/09/10 07:59:49;;;;;;;0.60;0.60;;;;;15.50;95940.00;;;;5113427;28;20630;-68
2022/09/10 08:02:15;;;;;;;0.40;0.40;;;;;15.40;95920.00;;;;5114340;28;20194;-66
2022/09/10 08:04:45;;;;;;;0.43;0.43;;;;;15.50;95930.00;;;;5114403;28;20221;-63
2022/09/10 08:07:13;;;;;;;0.50;0.50;;;;;15.70;95926.00;;;;5114517;28;20198;-66
2022/09/10 08:09:39;;;;;;;0.40;0.40;;;;;15.80;95945.00;;;;5114409;28;20521;-66
2022/09/10 08:12:09;;;;;;;0.50;0.50;;;;;15.60;95936.00;;;;5114340;28;20205;-66
2022/09/10 08:14:36;;;;;;;0.60;0.60;;;;;15.40;95949.00;;;;5114238;28;20229;-63
2022/09/10 08:17:04;;;;;;;0.67;0.67;;;;;15.40;95943.00;;;;5114293;28;20190;-66
2022/09/10 08:19:32;;;;;;;1.23;1.13;;;;;15.30;95955.00;;;;5114091;28;20229;-66
2022/09/10 08:22:02;;;;;;;0.43;0.43;;;;;15.40;95948.00;;;;5114039;28;20208;-66
2022/09/10 08:24:29;;;;;;;0.50;0.50;;;;;15.20;95957.00;;;;5114029;28;20599;-66
2022/09/10 08:26:56;;;;;;;0.40;0.40;;;;;15.10;95947.00;;;;5114068;28;20220;-66
2022/09/10 08:29:27;;;;;;;0.60;0.60;;;;;15.30;95958.00;;;;5113945;28;20213;-66
2022/09/10 08:31:54;;;;;;;0.60;0.60;;;;;15.40;95959.00;;;;5113996;28;20190;-66
2022/09/10 08:34:21;;;;;;;0.50;0.50;;;;;15.30;95961.00;;;;5113877;28;20761;-66
2022/09/10 08:36:48;;;;;;;0.50;0.50;;;;;15.10;95967.00;;;;5114147;28;20293;-66
2022/09/10 08:39:15;;;;;;;0.60;0.60;;;;;15.00;95976.00;;;;5113863;28;20245;-66
2022/09/10 08:41:51;;;;;;;0.50;0.50;;;;;15.10;95959.00;;;;5113928;28;20217;-66
2022/09/10 08:44:33;;;;;;;0.40;0.40;;;;;15.10;95974.00;;;;5113827;28;20314;-66
2022/09/10 08:47:12;;;;;;;0.50;0.50;;;;;15.20;95964.00;;;;5113720;28;20247;-66
2022/09/10 08:49:44;;;;;;;0.57;0.57;;;;;15.30;95974.00;;;;5113649;28;20224;-66
2022/09/10 08:52:20;;;;;;;0.50;0.50;;;;;15.10;95975.00;;;;5113765;28;20197;-66
2022/09/10 08:54:56;;;;;;;0.50;0.50;;;;;15.10;95981.00;;;;5113643;28;20232;-66
2022/09/10 08:57:26;;;;;;;0.53;0.53;;;;;14.80;95988.00;;;;5113600;28;20640;-64
2022/09/10 08:59:55;;;;;;;0.60;0.60;;;;;15.00;95982.00;;;;5113546;28;20316;-64
2022/09/10 09:02:30;;;;;;;0.50;0.50;;;;;14.90;95987.00;;;;5113659;28;20222;-67
2022/09/10 09:05:01;;;;;;;0.60;0.60;;;;;14.70;95988.00;;;;5095534;28;20538;-66
2022/09/10 09:07:38;;;;;;;0.60;0.60;;;;;14.60;95974.00;;;;5113572;28;20643;-66
2022/09/10 09:10:26;;;;;;;0.50;0.50;;;;;14.90;95975.00;;;;5114499;28;20633;-66
2022/09/10 09:13:14;;;;;;;0.47;0.47;;;;;15.00;95970.00;;;;5117232;28;20272;-66
2022/09/10 09:15:48;;;;;;;0.60;0.60;;;;;15.30;95966.00;;;;5099017;28;20672;-66
2022/09/10 09:18:23;;;;;;;0.50;0.50;;;;;15.20;95972.00;;;;5099148;28;20197;-68
2022/09/10 09:20:53;;;;;;;0.47;0.47;;;;;15.30;95978.00;;;;5099037;28;20220;-66
2022/09/10 09:23:23;;;;;;;0.60;0.60;;;;;14.90;95979.00;;;;5116966;28;20222;-67
2022/09/10 09:25:55;;;;;;;0.60;0.60;;;;;14.90;95982.00;;;;5116854;28;20232;-67
2022/09/10 09:28:37;;;;;;;0.50;0.50;;;;;14.90;95978.00;;;;5117074;28;20197;-66
2022/09/10 09:31:12;;;;;;;0.57;0.57;;;;;14.80;95990.00;;;;5116904;28;20221;-68
2022/09/10 09:33:42;;;;;;;0.40;0.40;;;;;14.80;95978.00;;;;5098834;28;20209;-66
2022/09/10 09:36:15;;;;;;;1.53;0.93;;;;;14.70;95994.00;;;;5116805;28;20280;-67
2022/09/10 09:38:45;;;;;;;0.50;0.50;;;;;14.80;95981.00;;;;5116842;28;20687;-67
2022/09/10 09:41:23;;;;;;;0.40;0.40;;;;;14.90;95974.00;;;;5116975;28;20206;-66
2022/09/10 09:43:54;;;;;;;0.73;0.73;;;;;15.20;95977.00;;;;5116754;28;20241;-66
2022/09/10 09:46:23;;;;;;;0.50;0.50;;;;;15.20;95977.00;;;;5116504;28;20220;-68
2022/09/10 09:48:54;;;;;;;0.50;0.50;;;;;15.60;95972.00;;;;5116715;28;20205;-65
2022/09/10 09:51:24;;;;;;;0.53;0.53;;;;;15.60;95971.00;;;;5098728;28;20633;-66
2022/09/10 09:53:56;;;;;;;0.50;0.50;;;;;15.60;95967.00;;;;5098569;28;20204;-64
2022/09/10 09:56:30;;;;;;;0.50;0.50;;;;;15.80;95974.00;;;;5116587;28;20194;-66
2022/09/10 09:59:10;;;;;;;0.47;0.47;;;;;16.10;95974.00;;;;5116517;28;20174;-66
2022/09/10 10:01:41;;;;;;;0.50;0.50;;;;;16.10;95982.00;;;;5098535;28;20198;-66
2022/09/10 10:04:21;;;;;;;0.50;0.50;;;;;15.90;95975.00;;;;5116449;28;20197;-66
2022/09/10 10:06:54;;;;;;;0.50;0.50;;;;;16.00;95966.00;;;;5116240;28;20217;-65
2022/09/10 10:09:24;;;;;;;1.00;1.00;;;;;15.90;95972.00;;;;5116386;28;20641;-66
2022/09/10 10:11:53;;;;;;;0.50;0.50;;;;;15.70;95979.00;;;;5116283;28;20658;-65
2022/09/10 10:14:38;;;;;;;0.50;0.50;;;;;15.80;95977.00;;;;5116211;28;20280;-66
2022/09/10 10:17:31;;;;;;;0.60;0.60;;;;;16.00;95961.00;;;;5116240;28;20280;-67
2022/09/10 10:20:07;;;;;;;0.50;0.50;;;;;16.40;95951.00;;;;5116188;28;20546;-67
2022/09/10 10:22:35;;;;;;;0.40;0.40;;;;;16.30;95948.00;;;;5115277;28;20190;-67
2022/09/10 10:25:24;;;;;;;0.43;0.43;;;;;16.80;95955.00;;;;5115974;28;20293;-69
2022/09/10 10:27:53;;;;;;;0.60;0.60;;;;;17.00;95961.00;;;;5115728;28;20588;-64
2022/09/10 10:30:24;;;;;;;0.60;0.60;;;;;16.80;95974.00;;;;5115937;28;20209;-67
2022/09/10 10:32:55;;;;;;;0.57;0.57;;;;;16.70;95958.00;;;;5116087;28;20190;-67
2022/09/10 10:35:39;;;;;;;0.40;0.40;;;;;16.60;95959.00;;;;5097967;28;20217;-65
2022/09/10 10:38:27;;;;;;;0.60;0.60;;;;;16.50;95937.00;;;;5115813;28;20189;-67
2022/09/10 10:41:12;;;;;;;0.93;0.93;;;;;17.00;95952.00;;;;5116019;28;20291;-68
2022/09/10 10:43:52;;;;;;;0.53;0.53;;;;;17.70;95941.00;;;;5115802;28;20226;-69
2022/09/10 10:46:21;;;;;;;2.90;0.93;;;;;17.80;95951.00;;;;5115672;28;20274;-66
2022/09/10 10:49:04;;;;;;;0.60;0.60;;;;;17.00;95945.00;;;;5115726;28;20235;-65
2022/09/10 10:51:44;;;;;;;0.60;0.60;;;;;16.70;95960.00;;;;5115798;28;20330;-69
2022/09/10 10:54:33;;;;;;;0.40;0.40;;;;;17.40;95941.00;;;;5115644;28;20222;-67
2022/09/10 10:57:10;;;;;;;0.43;0.43;;;;;17.40;95922.00;;;;5115685;28;20190;-69
2022/09/10 10:59:51;;;;;;;0.60;0.60;;;;;17.60;95946.00;;;;5115521;28;20294;-68
2022/09/10 11:02:31;;;;;;;0.60;0.60;;;;;18.10;95915.00;;;;5115464;28;20202;-69
2022/09/10 11:05:06;;;;;;;0.50;0.50;;;;;18.20;95943.00;;;;5115402;28;20245;-69
2022/09/10 11:07:38;;;;;;;0.33;0.33;;;;;18.40;95900.00;;;;5115534;28;20237;-69
2022/09/10 11:10:15;;;;;;;0.40;0.40;;;;;18.00;95901.00;;;;5097588;28;20206;-69
2022/09/10 11:12:48;;;;;;;0.63;0.63;;;;;17.50;95908.00;;;;5115428;28;20640;-68
2022/09/10 11:15:29;;;;;;;0.50;0.50;;;;;17.30;95916.00;;;;5115500;28;20194;-69
2022/09/10 11:18:02;;;;;;;0.50;0.50;;;;;17.10;95924.00;;;;5115560;28;20201;-69
2022/09/10 11:20:37;;;;;;;0.37;0.37;;;;;17.20;95923.00;;;;5097464;28;20504;-68
2022/09/10 11:23:20;;;;;;;0.50;0.50;;;;;17.20;95916.00;;;;5115295;28;20212;-70
2022/09/10 11:25:53;;;;;;;0.50;0.50;;;;;17.20;95908.00;;;;5115097;28;20222;-69
2022/09/10 11:28:25;;;;;;;0.50;0.50;;;;;17.90;95913.00;;;;5115052;28;20218;-67
2022/09/10 11:30:58;;;;;;;0.60;0.60;;;;;17.90;95922.00;;;;5115108;28;20209;-69
2022/09/10 11:33:32;;;;;;;0.37;0.37;;;;;18.20;95917.00;;;;5095826;28;20551;-67
2022/09/10 11:36:08;;;;;;;0.40;0.40;;;;;18.40;95922.00;;;;5115502;28;20218;-68
2022/09/10 11:38:46;;;;;;;0.60;0.60;;;;;18.50;95885.00;;;;5115060;28;20270;-69
2022/09/10 11:41:17;;;;;;;0.40;0.40;;;;;18.30;95931.00;;;;5115035;28;20189;-67
2022/09/10 11:43:51;;;;;;;0.40;0.40;;;;;17.80;95932.00;;;;5114984;28;20200;-67
2022/09/10 11:46:25;;;;;;;0.50;0.50;;;;;17.70;95929.00;;;;5114823;28;20221;-67
2022/09/10 11:49:02;;;;;;;0.30;0.30;;;;;17.60;95923.00;;;;5114851;28;20246;-69
2022/09/10 11:51:32;;;;;;;0.53;0.53;;;;;18.00;95942.00;;;;5114811;28;20228;-67
2022/09/10 11:54:02;;;;;;;3.23;1.53;;;;;18.00;95937.00;;;;5114733;28;20224;-70
2022/09/10 11:56:44;;;;;;;0.40;0.40;;;;;17.60;95930.00;;;;5114661;28;20206;-67
2022/09/10 11:59:27;;;;;;;0.60;0.60;;;;;17.60;95916.00;;;;5114731;28;20289;-68
2022/09/10 12:02:17;;;;;;;0.57;0.57;;;;;18.10;95937.00;;;;5114598;28;20254;-67
2022/09/10 12:04:51;;;;;;;0.40;0.40;;;;;18.10;95913.00;;;;5114634;28;20202;-69
2022/09/10 12:07:34;;;;;;;0.50;0.50;;;;;18.40;95913.00;;;;5114483;28;20225;-70
2022/09/10 12:10:09;;;;;;;0.50;0.50;;;;;18.40;95933.00;;;;5114539;28;20204;-65
2022/09/10 12:12:41;;;;;;;0.57;0.57;;;;;18.60;95941.00;;;;5114417;28;20213;-66
2022/09/10 12:15:14;;;;;;;0.50;0.50;;;;;18.80;95944.00;;;;5114494;28;20198;-66
2022/09/10 12:17:44;;;;;;;0.40;0.40;;;;;18.70;95925.00;;;;5114222;28;20296;-65
2022/09/10 12:20:18;;;;;;;0.70;0.70;;;;;18.50;95935.00;;;;5114177;28;20194;-69
2022/09/10 12:22:50;;;;;;;0.47;0.47;;;;;18.10;95932.00;;;;5114213;28;20217;-66
2022/09/10 12:25:27;;;;;;;0.40;0.40;;;;;17.70;95922.00;;;;5114574;28;20176;-67
2022/09/10 12:27:58;;;;;;;0.70;0.70;;;;;18.10;95916.00;;;;5114248;28;20231;-67
2022/09/10 12:31:02;;;;;;;0.50;0.50;;;;;18.30;95908.00;;;;5114145;28;20220;-65
2022/09/10 12:34:07;;;;;;;0.50;0.50;;;;;18.80;95930.00;;;;5096339;28;20194;-68
2022/09/10 12:37:14;;;;;;;0.60;0.60;;;;;18.60;95926.00;;;;5105616;28;20652;-66
2022/09/10 12:39:43;;;;;;;0.60;0.60;;;;;18.60;95926.00;;;;5114562;28;20217;-69